Time;durP1;ratioP1;P1;durP2;ratioP2;P2;SDS_P1;SDS_P2;PMS_P1;PMS_P2;Temp;Humidity;BMP_temperature;BMP_pressure;BME280_temperature;BME280_humidity;BME280_pressure;Samples;Min_cycle;Max_cycle;Signal;HPM_P1;HPM_P2
2022/05/26 00:01:07;;;;;;;0.60;0.35;;;18.70;50.30;;;;;;946689;150;27504;-74
2022/05/26 00:03:33;;;;;;;0.65;0.65;;;18.70;50.40;;;;;;946491;151;27445;-74
2022/05/26 00:06:00;;;;;;;0.90;0.65;;;18.70;50.50;;;;;;946589;151;27330;-74
2022/05/26 00:08:27;;;;;;;0.60;0.53;;;18.70;50.60;;;;;;946965;149;27253;-74
2022/05/26 00:10:53;;;;;;;0.53;0.47;;;18.70;50.70;;;;;;947316;149;27404;-74
2022/05/26 00:13:20;;;;;;;0.50;0.50;;;18.70;50.80;;;;;;946318;151;27339;-74
2022/05/26 00:15:46;;;;;;;0.53;0.53;;;18.70;50.80;;;;;;945361;151;27326;-74
2022/05/26 00:18:13;;;;;;;0.42;0.42;;;18.70;50.80;;;;;;945662;151;27427;-74
2022/05/26 00:20:39;;;;;;;0.95;0.70;;;18.70;50.90;;;;;;946098;151;27395;-74
2022/05/26 00:23:06;;;;;;;1.80;0.60;;;18.70;50.90;;;;;;946107;151;27312;-74
2022/05/26 00:25:33;;;;;;;0.60;0.60;;;18.70;50.90;;;;;;944076;150;27445;-74
2022/05/26 00:27:59;;;;;;;0.85;0.50;;;18.70;51.00;;;;;;940274;151;27343;-74
2022/05/26 00:30:26;;;;;;;0.53;0.53;;;18.70;51.00;;;;;;941293;151;27985;-74
2022/05/26 00:32:52;;;;;;;0.72;0.37;;;18.70;51.00;;;;;;940902;152;27289;-74
2022/05/26 00:35:19;;;;;;;0.75;0.70;;;18.70;51.10;;;;;;940923;151;27317;-74
2022/05/26 00:37:46;;;;;;;0.60;0.40;;;18.70;51.10;;;;;;940797;152;27311;-74
2022/05/26 00:40:12;;;;;;;0.82;0.42;;;18.70;51.00;;;;;;941004;150;27413;-74
2022/05/26 00:42:40;;;;;;;0.45;0.40;;;18.70;51.10;;;;;;941002;151;27344;-74
2022/05/26 00:45:05;;;;;;;0.78;0.78;;;18.70;51.20;;;;;;940433;151;27304;-74
2022/05/26 00:47:32;;;;;;;0.60;0.60;;;18.70;51.20;;;;;;940472;152;27689;-74
2022/05/26 00:50:05;;;;;;;0.40;0.40;;;18.70;51.20;;;;;;940603;151;27365;-74
2022/05/26 00:52:37;;;;;;;1.37;0.60;;;18.70;51.20;;;;;;940413;150;27453;-74
2022/05/26 00:55:07;;;;;;;1.57;0.65;;;18.70;51.20;;;;;;939339;151;27335;-74
2022/05/26 00:57:33;;;;;;;0.95;0.40;;;18.70;51.20;;;;;;940657;151;27285;-74
2022/05/26 01:00:12;;;;;;;1.00;0.60;;;18.70;51.20;;;;;;940484;151;27254;-74
2022/05/26 01:02:39;;;;;;;0.47;0.40;;;18.80;51.30;;;;;;940310;151;27309;-74
2022/05/26 01:05:08;;;;;;;0.85;0.45;;;18.70;51.80;;;;;;939909;151;27327;-74
2022/05/26 01:07:35;;;;;;;0.45;0.45;;;18.80;51.30;;;;;;940051;152;27342;-74
2022/05/26 01:10:01;;;;;;;0.30;0.30;;;18.80;51.20;;;;;;940561;152;27437;-74
2022/05/26 01:12:28;;;;;;;0.78;0.53;;;18.80;51.20;;;;;;940637;151;27402;-74
2022/05/26 01:14:55;;;;;;;1.12;0.60;;;18.80;51.20;;;;;;939974;152;27269;-74
2022/05/26 01:17:30;;;;;;;0.68;0.42;;;18.80;51.20;;;;;;940498;151;27385;-74
2022/05/26 01:20:20;;;;;;;0.53;0.50;;;18.80;51.10;;;;;;940876;151;27507;-74
2022/05/26 01:23:27;;;;;;;0.82;0.60;;;18.80;51.10;;;;;;940560;152;28630;-74
2022/05/26 01:26:06;;;;;;;0.40;0.40;;;18.80;51.00;;;;;;943972;150;27812;-74
2022/05/26 01:28:33;;;;;;;0.23;0.23;;;18.70;50.90;;;;;;953697;148;27338;-74
2022/05/26 01:31:08;;;;;;;1.83;0.50;;;18.70;51.00;;;;;;952617;149;27275;-74
2022/05/26 01:34:12;;;;;;;0.43;0.40;;;18.60;51.10;;;;;;952734;149;27316;-74
2022/05/26 01:36:47;;;;;;;1.17;0.50;;;18.50;51.10;;;;;;953386;150;27392;-73
2022/05/26 01:39:31;;;;;;;1.90;0.53;;;18.50;51.10;;;;;;953195;150;27313;-73
2022/05/26 01:42:16;;;;;;;0.42;0.42;;;18.40;51.30;;;;;;953862;150;27350;-73
2022/05/26 01:44:49;;;;;;;0.53;0.53;;;18.40;51.40;;;;;;953478;150;27350;-74
2022/05/26 01:47:33;;;;;;;0.40;0.40;;;18.40;51.50;;;;;;952740;150;27414;-74
2022/05/26 01:50:06;;;;;;;1.60;0.70;;;18.30;51.60;;;;;;953414;150;27322;-74
2022/05/26 01:52:41;;;;;;;1.85;0.40;;;18.40;51.70;;;;;;953643;149;27354;-74
2022/05/26 01:55:13;;;;;;;0.40;0.40;;;18.40;51.80;;;;;;952879;149;27442;-74
2022/05/26 01:57:58;;;;;;;0.82;0.40;;;18.40;51.80;;;;;;942521;149;27392;-74
2022/05/26 02:00:24;;;;;;;1.37;1.05;;;18.40;51.80;;;;;;946495;149;27428;-74
2022/05/26 02:02:56;;;;;;;0.40;0.40;;;18.50;51.80;;;;;;946112;149;27360;-74
2022/05/26 02:05:23;;;;;;;0.95;0.68;;;18.50;51.80;;;;;;952626;149;27373;-74
2022/05/26 02:07:55;;;;;;;1.70;0.63;;;18.50;51.90;;;;;;950389;149;27280;-74
2022/05/26 02:10:25;;;;;;;0.50;0.50;;;18.60;51.90;;;;;;953277;149;27250;-74
2022/05/26 02:12:54;;;;;;;0.40;0.40;;;18.60;51.90;;;;;;952796;149;27376;-74
2022/05/26 02:15:20;;;;;;;1.12;0.72;;;18.60;51.80;;;;;;953347;149;27788;-74
2022/05/26 02:18:05;;;;;;;0.65;0.50;;;18.60;51.90;;;;;;952095;149;27327;-74
2022/05/26 02:20:49;;;;;;;0.50;0.45;;;18.70;51.90;;;;;;953891;148;27396;-74
2022/05/26 02:23:26;;;;;;;0.90;0.45;;;18.70;51.80;;;;;;953484;149;27334;-74
2022/05/26 02:25:51;;;;;;;0.25;0.25;;;18.70;51.70;;;;;;954063;148;27865;-74
2022/05/26 02:28:18;;;;;;;1.37;0.70;;;18.80;51.70;;;;;;953433;150;27358;-73
2022/05/26 02:30:44;;;;;;;0.40;0.40;;;18.80;51.70;;;;;;953385;148;27239;-74
2022/05/26 02:33:11;;;;;;;0.40;0.40;;;18.80;51.80;;;;;;952634;148;27310;-74
2022/05/26 02:35:37;;;;;;;0.53;0.53;;;18.80;51.70;;;;;;953679;149;27294;-74
2022/05/26 02:38:10;;;;;;;0.40;0.40;;;18.80;51.70;;;;;;953225;150;27362;-74
2022/05/26 02:40:36;;;;;;;1.65;0.90;;;18.70;51.70;;;;;;951827;149;27311;-74
2022/05/26 02:43:03;;;;;;;0.40;0.40;;;18.70;51.70;;;;;;953606;148;27279;-74
2022/05/26 02:46:07;;;;;;;0.50;0.50;;;18.70;51.70;;;;;;952512;149;27366;-74
2022/05/26 02:48:45;;;;;;;0.30;0.30;;;18.60;51.90;;;;;;953109;150;27291;-74
2022/05/26 02:51:18;;;;;;;1.62;0.40;;;18.60;51.70;;;;;;951239;150;27355;-73
2022/05/26 02:53:44;;;;;;;0.95;0.53;;;18.60;51.90;;;;;;953163;148;27355;-73
2022/05/26 02:56:48;;;;;;;0.53;0.53;;;18.50;51.90;;;;;;953029;149;27422;-73
2022/05/26 02:59:18;;;;;;;0.60;0.57;;;18.50;52.00;;;;;;953497;150;27334;-74
2022/05/26 03:01:53;;;;;;;0.55;0.55;;;18.40;52.60;;;;;;952519;149;27447;-73
2022/05/26 03:04:28;;;;;;;1.17;0.75;;;18.40;52.10;;;;;;952958;149;27255;-73
2022/05/26 03:06:55;;;;;;;0.20;0.20;;;18.40;52.20;;;;;;953445;149;27402;-73
2022/05/26 03:09:21;;;;;;;2.20;0.70;;;18.30;52.20;;;;;;953409;149;27345;-74
2022/05/26 03:11:48;;;;;;;1.10;0.42;;;18.20;52.20;;;;;;953520;148;27325;-73
2022/05/26 03:14:14;;;;;;;0.47;0.47;;;18.20;52.40;;;;;;952198;149;27420;-73
2022/05/26 03:16:41;;;;;;;0.63;0.40;;;18.20;52.50;;;;;;953756;148;27270;-73
2022/05/26 03:19:08;;;;;;;1.02;0.70;;;18.10;52.50;;;;;;953488;149;27459;-73
2022/05/26 03:21:34;;;;;;;0.80;0.60;;;18.00;52.60;;;;;;953249;150;27433;-73
2022/05/26 03:24:01;;;;;;;0.88;0.50;;;18.00;52.70;;;;;;953712;148;27361;-73
2022/05/26 03:26:27;;;;;;;1.13;0.53;;;18.00;53.00;;;;;;953453;148;27267;-73
2022/05/26 03:28:54;;;;;;;0.78;0.60;;;18.00;53.00;;;;;;954034;148;28037;-73
2022/05/26 03:31:21;;;;;;;0.70;0.62;;;18.00;53.20;;;;;;952666;148;27670;-73
2022/05/26 03:42:01;;;;;;;0.90;0.60;;;18.00;53.30;;;;;;953688;150;27961;-73
2022/05/26 03:44:28;;;;;;;0.97;0.50;;;18.10;53.30;;;;;;953044;150;27306;-73
2022/05/26 03:46:55;;;;;;;0.70;0.70;;;18.10;53.30;;;;;;953068;148;27275;-73
2022/05/26 03:49:21;;;;;;;0.72;0.72;;;18.20;53.50;;;;;;953076;148;27396;-73
2022/05/26 03:51:48;;;;;;;0.60;0.60;;;18.20;53.50;;;;;;953990;148;27467;-73
2022/05/26 03:54:14;;;;;;;0.82;0.70;;;18.20;53.50;;;;;;953599;149;27434;-73
2022/05/26 03:56:41;;;;;;;1.45;0.53;;;18.30;53.50;;;;;;952867;150;27244;-73
2022/05/26 03:59:08;;;;;;;0.60;0.50;;;18.30;53.50;;;;;;953438;148;27356;-73
2022/05/26 04:01:34;;;;;;;0.62;0.42;;;18.30;53.50;;;;;;953852;150;27282;-73
2022/05/26 04:04:01;;;;;;;0.80;0.70;;;18.40;53.50;;;;;;953899;148;27796;-73
2022/05/26 04:06:28;;;;;;;1.27;0.57;;;18.40;53.50;;;;;;953358;150;27451;-73
2022/05/26 04:08:54;;;;;;;0.70;0.68;;;18.50;53.60;;;;;;953256;150;28903;-73
2022/05/26 04:11:24;;;;;;;1.65;0.68;;;18.50;53.90;;;;;;953657;148;27306;-74
2022/05/26 04:13:47;;;;;;;1.65;0.70;;;18.50;53.60;;;;;;952794;149;27254;-73
2022/05/26 04:16:14;;;;;;;1.12;0.60;;;18.60;53.60;;;;;;953624;150;27358;-74
2022/05/26 04:18:40;;;;;;;0.57;0.57;;;18.60;53.60;;;;;;953937;148;27338;-73
2022/05/26 04:21:07;;;;;;;1.02;0.60;;;18.60;53.60;;;;;;952610;150;27384;-73
2022/05/26 04:23:33;;;;;;;0.85;0.50;;;18.60;53.60;;;;;;953717;148;27367;-73
2022/05/26 04:26:00;;;;;;;1.95;0.62;;;18.60;53.70;;;;;;953463;150;27449;-73
2022/05/26 04:28:27;;;;;;;1.20;0.50;;;18.60;53.70;;;;;;940293;148;27354;-73
2022/05/26 04:30:53;;;;;;;0.40;0.30;;;18.60;53.90;;;;;;928382;154;27492;-73
2022/05/26 04:33:20;;;;;;;0.50;0.50;;;18.70;54.10;;;;;;928609;154;27358;-74
2022/05/26 04:35:46;;;;;;;1.25;0.60;;;18.70;54.10;;;;;;927935;154;27447;-73
2022/05/26 04:38:13;;;;;;;1.15;0.60;;;18.80;54.30;;;;;;928414;154;27307;-73
2022/05/26 04:40:40;;;;;;;0.53;0.53;;;18.80;54.30;;;;;;928825;154;27341;-74
2022/05/26 04:43:06;;;;;;;0.57;0.47;;;18.90;54.30;;;;;;928634;154;27283;-73
2022/05/26 04:45:33;;;;;;;1.87;0.30;;;19.00;54.20;;;;;;928796;153;28022;-74
2022/05/26 04:47:59;;;;;;;0.42;0.42;;;19.00;54.20;;;;;;928108;151;27315;-73
2022/05/26 04:50:26;;;;;;;0.57;0.57;;;19.10;54.20;;;;;;928518;151;27311;-73
2022/05/26 04:52:53;;;;;;;0.72;0.30;;;19.20;54.30;;;;;;928576;154;27346;-73
2022/05/26 04:55:19;;;;;;;1.17;0.78;;;19.20;54.20;;;;;;929010;151;27307;-73
2022/05/26 04:57:46;;;;;;;0.40;0.30;;;19.30;54.20;;;;;;927552;151;27428;-73
2022/05/26 05:00:12;;;;;;;0.40;0.37;;;19.50;54.20;;;;;;928226;154;27420;-74
2022/05/26 05:02:39;;;;;;;0.70;0.53;;;19.50;54.70;;;;;;927999;154;27392;-73
2022/05/26 05:05:05;;;;;;;0.53;0.33;;;19.60;54.20;;;;;;928728;154;27304;-73
2022/05/26 05:07:32;;;;;;;0.30;0.30;;;19.80;54.80;;;;;;928531;154;27454;-73
2022/05/26 05:09:59;;;;;;;0.45;0.33;;;20.20;55.50;;;;;;928773;154;27347;-73
2022/05/26 05:12:26;;;;;;;0.23;0.23;;;20.70;56.10;;;;;;928729;153;27934;-73
2022/05/26 05:14:52;;;;;;;0.65;0.28;;;21.20;55.80;;;;;;927696;154;27315;-74
2022/05/26 05:17:18;;;;;;;0.45;0.37;;;21.80;54.80;;;;;;927990;154;27390;-74
2022/05/26 05:19:45;;;;;;;0.30;0.30;;;22.40;54.00;;;;;;928028;153;27408;-74
2022/05/26 05:22:18;;;;;;;0.78;0.53;;;22.80;53.10;;;;;;927979;154;27339;-74
2022/05/26 05:24:44;;;;;;;1.00;0.55;;;23.20;52.20;;;;;;928037;154;27357;-74
2022/05/26 05:27:11;;;;;;;0.40;0.40;;;23.40;51.30;;;;;;927807;154;27328;-74
2022/05/26 05:29:37;;;;;;;0.90;0.53;;;23.50;50.60;;;;;;927141;150;27390;-74
2022/05/26 05:32:04;;;;;;;0.65;0.20;;;23.50;50.10;;;;;;928528;153;27778;-74
2022/05/26 05:34:33;;;;;;;0.72;0.35;;;23.50;49.90;;;;;;927761;154;27336;-74
2022/05/26 05:37:00;;;;;;;0.28;0.23;;;23.50;50.00;;;;;;928198;154;27389;-73
2022/05/26 05:39:26;;;;;;;1.92;0.40;;;23.40;49.80;;;;;;928856;154;27307;-74
2022/05/26 05:41:54;;;;;;;0.30;0.30;;;23.30;49.70;;;;;;928880;153;27315;-74
2022/05/26 05:44:20;;;;;;;1.65;0.50;;;23.20;49.70;;;;;;928605;154;27296;-75
2022/05/26 05:46:57;;;;;;;0.28;0.28;;;23.20;49.70;;;;;;928538;154;27323;-74
2022/05/26 05:49:22;;;;;;;0.80;0.47;;;23.10;49.80;;;;;;928510;151;27361;-74
2022/05/26 05:51:49;;;;;;;0.80;0.40;;;23.00;49.80;;;;;;928632;154;27398;-74
2022/05/26 05:54:15;;;;;;;0.93;0.47;;;22.90;49.90;;;;;;928196;153;27339;-74
2022/05/26 05:56:42;;;;;;;0.30;0.30;;;22.90;49.90;;;;;;928266;154;27322;-74
2022/05/26 05:59:08;;;;;;;0.40;0.40;;;22.70;49.90;;;;;;928392;154;27342;-74
2022/05/26 06:01:35;;;;;;;0.42;0.42;;;22.70;50.00;;;;;;928247;154;27358;-74
2022/05/26 06:04:01;;;;;;;0.60;0.50;;;22.60;50.30;;;;;;928530;154;27354;-75
2022/05/26 06:06:28;;;;;;;0.50;0.37;;;22.60;50.40;;;;;;927336;154;27309;-74
2022/05/26 06:08:55;;;;;;;0.28;0.28;;;22.60;50.60;;;;;;927655;154;27287;-74
2022/05/26 06:11:21;;;;;;;0.50;0.50;;;22.60;50.60;;;;;;928289;153;27397;-74
2022/05/26 06:13:48;;;;;;;1.32;0.47;;;22.70;50.80;;;;;;928352;154;27407;-74
2022/05/26 06:16:14;;;;;;;0.40;0.30;;;22.80;50.80;;;;;;928653;154;27661;-74
2022/05/26 06:18:41;;;;;;;2.58;0.57;;;22.90;51.50;;;;;;928614;153;28241;-74
2022/05/26 06:21:08;;;;;;;0.93;0.42;;;23.00;50.90;;;;;;927667;154;27398;-74
2022/05/26 06:23:34;;;;;;;0.65;0.30;;;23.10;50.90;;;;;;927958;154;27408;-74
2022/05/26 06:26:01;;;;;;;0.62;0.37;;;23.30;50.70;;;;;;928243;151;27334;-74
2022/05/26 06:31:12;;;;;;;0.42;0.37;;;23.50;50.30;;;;;;944340;151;27471;-75
2022/05/26 06:39:09;;;;;;;0.65;0.37;;;23.90;50.20;;;;;;945416;151;27293;-75
2022/05/26 06:44:20;;;;;;;0.98;0.40;;;24.30;50.00;;;;;;944663;151;27428;-74
2022/05/26 06:46:46;;;;;;;0.62;0.30;;;24.50;49.80;;;;;;945107;151;27475;-75
2022/05/26 06:49:13;;;;;;;1.17;0.55;;;24.70;49.40;;;;;;944651;151;27332;-75
2022/05/26 06:51:42;;;;;;;0.53;0.25;;;24.80;49.10;;;;;;944695;149;27766;-75
2022/05/26 06:54:06;;;;;;;1.65;0.70;;;24.90;49.00;;;;;;944268;151;27308;-75
2022/05/26 06:56:33;;;;;;;0.62;0.33;;;25.00;48.70;;;;;;944289;148;27309;-75
2022/05/26 06:58:59;;;;;;;1.12;0.50;;;25.00;49.10;;;;;;945222;150;27344;-75
2022/05/26 07:01:26;;;;;;;0.45;0.20;;;25.00;48.50;;;;;;945039;151;27385;-75
2022/05/26 07:03:53;;;;;;;0.85;0.30;;;25.10;48.60;;;;;;945264;151;27289;-75
2022/05/26 07:06:19;;;;;;;0.50;0.33;;;25.10;48.60;;;;;;945794;150;27285;-75
2022/05/26 07:08:46;;;;;;;0.20;0.20;;;25.10;48.50;;;;;;945040;151;27312;-75
2022/05/26 07:11:12;;;;;;;0.60;0.37;;;25.20;48.40;;;;;;944994;151;27363;-75
2022/05/26 07:13:39;;;;;;;0.88;0.60;;;25.20;48.20;;;;;;944866;151;27341;-74
2022/05/26 07:16:05;;;;;;;0.35;0.30;;;25.20;48.00;;;;;;944866;150;27413;-75
2022/05/26 07:18:32;;;;;;;0.50;0.40;;;25.20;48.00;;;;;;945310;150;27325;-75
2022/05/26 07:20:59;;;;;;;1.45;0.65;;;25.10;47.90;;;;;;944404;151;27401;-75
2022/05/26 07:23:25;;;;;;;0.23;0.23;;;25.10;48.00;;;;;;945281;149;27305;-75
2022/05/26 07:25:52;;;;;;;1.00;0.65;;;25.10;48.20;;;;;;945095;150;27417;-75
2022/05/26 07:28:18;;;;;;;0.45;0.45;;;25.10;48.30;;;;;;944958;151;27347;-75
2022/05/26 07:30:45;;;;;;;1.90;0.20;;;25.10;48.50;;;;;;942204;150;27310;-75
2022/05/26 07:33:12;;;;;;;0.37;0.33;;;25.20;48.60;;;;;;940265;152;27242;-74
2022/05/26 07:35:38;;;;;;;0.55;0.37;;;25.30;48.50;;;;;;940529;152;27306;-75
2022/05/26 07:43:34;;;;;;;0.37;0.15;;;25.40;47.70;;;;;;940525;152;27340;-75
2022/05/26 07:46:00;;;;;;;3.02;0.65;;;25.50;47.70;;;;;;939996;152;27305;-75
2022/05/26 07:48:27;;;;;;;0.42;0.30;;;25.50;47.60;;;;;;939350;151;27370;-75
2022/05/26 07:50:53;;;;;;;0.10;0.10;;;25.50;47.60;;;;;;940848;150;27375;-74
2022/05/26 07:53:20;;;;;;;0.68;0.40;;;25.50;47.50;;;;;;940368;151;27337;-75
2022/05/26 07:55:47;;;;;;;0.42;0.40;;;25.60;47.40;;;;;;941075;151;27310;-75
2022/05/26 07:58:13;;;;;;;0.53;0.40;;;25.70;47.50;;;;;;941272;151;27381;-75
2022/05/26 08:00:40;;;;;;;1.75;0.60;;;25.70;47.40;;;;;;941020;152;27398;-75
2022/05/26 08:03:07;;;;;;;0.65;0.30;;;25.80;47.50;;;;;;940810;152;27297;-75
2022/05/26 08:05:33;;;;;;;0.50;0.40;;;25.80;47.30;;;;;;939871;152;27418;-75
2022/05/26 08:08:00;;;;;;;0.20;0.20;;;25.90;47.30;;;;;;940711;151;27342;-75
2022/05/26 08:10:26;;;;;;;0.40;0.33;;;26.00;47.30;;;;;;940351;152;27282;-75
2022/05/26 08:12:53;;;;;;;0.70;0.35;;;26.10;47.30;;;;;;940742;151;27274;-75
2022/05/26 08:15:19;;;;;;;0.60;0.45;;;26.10;47.20;;;;;;940949;151;27273;-75
2022/05/26 08:17:46;;;;;;;0.80;0.40;;;26.30;47.30;;;;;;941049;152;27337;-74
2022/05/26 08:20:13;;;;;;;0.65;0.40;;;26.50;47.30;;;;;;929086;150;27384;-75
2022/05/26 08:22:39;;;;;;;0.55;0.30;;;26.70;47.00;;;;;;949066;148;27390;-75
2022/05/26 08:25:06;;;;;;;1.65;0.53;;;26.90;46.80;;;;;;932992;150;27428;-75
2022/05/26 08:27:32;;;;;;;1.77;0.80;;;27.00;46.50;;;;;;944761;148;27279;-75
2022/05/26 08:29:59;;;;;;;0.37;0.30;;;27.20;46.30;;;;;;934048;150;27490;-75
2022/05/26 08:32:29;;;;;;;0.42;0.42;;;27.30;46.20;;;;;;944433;148;27350;-74
2022/05/26 08:34:58;;;;;;;0.35;0.35;;;27.40;46.00;;;;;;928491;150;27431;-75
2022/05/26 08:37:24;;;;;;;1.95;0.50;;;27.50;45.70;;;;;;926770;150;27431;-75
2022/05/26 08:39:51;;;;;;;0.68;0.30;;;27.50;45.30;;;;;;934162;149;27312;-75
2022/05/26 08:42:23;;;;;;;0.80;0.80;;;27.50;45.30;;;;;;942328;149;27384;-75
2022/05/26 08:44:50;;;;;;;3.12;0.75;;;27.50;45.40;;;;;;937650;149;27895;-75
2022/05/26 08:47:17;;;;;;;0.47;0.30;;;27.60;45.60;;;;;;942577;149;27404;-75
2022/05/26 08:49:43;;;;;;;1.85;0.50;;;27.70;45.50;;;;;;941397;149;27426;-75
2022/05/26 08:52:16;;;;;;;1.02;0.60;;;27.80;45.40;;;;;;941196;149;27918;-75
2022/05/26 08:54:45;;;;;;;1.30;0.45;;;27.90;45.20;;;;;;942380;149;27338;-75
2022/05/26 08:57:12;;;;;;;0.45;0.40;;;28.00;45.00;;;;;;941528;149;27442;-76
2022/05/26 08:59:38;;;;;;;1.12;0.53;;;28.10;45.00;;;;;;941524;149;27303;-75
2022/05/26 09:02:05;;;;;;;1.02;0.53;;;28.30;44.80;;;;;;940302;149;27428;-75
2022/05/26 09:04:31;;;;;;;1.02;0.40;;;28.40;44.50;;;;;;942181;149;27357;-75
2022/05/26 09:15:19;;;;;;;1.02;0.40;;;29.00;44.30;;;;;;941912;149;27910;-75
2022/05/26 09:17:45;;;;;;;0.40;0.40;;;29.20;44.00;;;;;;942613;149;27311;-75
2022/05/26 09:20:20;;;;;;;0.35;0.35;;;29.20;43.50;;;;;;942892;149;27395;-75
2022/05/26 09:22:47;;;;;;;0.42;0.35;;;29.30;43.20;;;;;;916440;151;27380;-75
2022/05/26 09:25:13;;;;;;;1.05;0.60;;;29.20;42.80;;;;;;942900;149;27351;-75
2022/05/26 09:27:40;;;;;;;0.98;0.40;;;29.10;42.50;;;;;;938686;149;27335;-75
2022/05/26 09:30:24;;;;;;;0.70;0.40;;;29.00;42.70;;;;;;940249;149;27399;-75
2022/05/26 09:32:51;;;;;;;1.37;1.07;;;28.90;42.60;;;;;;942668;149;27437;-75
2022/05/26 09:35:23;;;;;;;0.85;0.42;;;28.80;42.60;;;;;;942636;149;27502;-75
2022/05/26 09:37:47;;;;;;;0.80;0.50;;;28.70;42.60;;;;;;941067;149;27335;-75
2022/05/26 09:40:13;;;;;;;0.85;0.40;;;28.60;42.90;;;;;;942314;149;27330;-75
2022/05/26 09:42:40;;;;;;;1.27;0.53;;;28.60;43.40;;;;;;942191;149;27331;-75
2022/05/26 09:45:13;;;;;;;0.72;0.40;;;28.70;43.90;;;;;;942070;149;27443;-75
2022/05/26 09:47:39;;;;;;;1.17;0.45;;;28.90;44.00;;;;;;942699;149;27733;-75
2022/05/26 09:50:09;;;;;;;1.57;0.60;;;29.20;43.90;;;;;;939430;149;27886;-75
2022/05/26 09:52:42;;;;;;;1.00;0.33;;;29.40;43.50;;;;;;941358;149;27432;-76
2022/05/26 09:55:16;;;;;;;0.70;0.33;;;29.60;43.00;;;;;;942282;149;27338;-75
2022/05/26 09:57:43;;;;;;;0.60;0.50;;;29.80;42.60;;;;;;942925;149;27451;-75
2022/05/26 10:00:15;;;;;;;0.60;0.60;;;30.00;42.30;;;;;;942428;149;27466;-75
2022/05/26 10:02:42;;;;;;;0.90;0.50;;;30.00;41.90;;;;;;942338;149;27306;-75
2022/05/26 10:05:23;;;;;;;0.90;0.57;;;30.10;41.70;;;;;;942406;149;27300;-75
2022/05/26 10:07:50;;;;;;;0.50;0.50;;;30.00;41.20;;;;;;942974;149;27384;-75
2022/05/26 10:10:34;;;;;;;0.60;0.40;;;29.80;40.80;;;;;;942517;149;27375;-75
2022/05/26 10:13:22;;;;;;;0.90;0.37;;;29.70;40.70;;;;;;941648;149;27339;-75
2022/05/26 10:15:52;;;;;;;0.85;0.65;;;29.30;40.50;;;;;;941721;149;27333;-75
2022/05/26 10:18:49;;;;;;;1.12;0.78;;;29.10;40.90;;;;;;941005;149;27882;-75
2022/05/26 10:21:25;;;;;;;1.55;0.60;;;28.70;41.00;;;;;;942670;149;27422;-75
2022/05/26 10:24:16;;;;;;;1.12;0.65;;;28.40;41.30;;;;;;941935;149;27345;-75
2022/05/26 10:26:49;;;;;;;0.42;0.37;;;28.30;41.70;;;;;;941992;149;27330;-75
2022/05/26 10:29:33;;;;;;;1.02;0.72;;;28.10;41.90;;;;;;942843;149;27435;-75
2022/05/26 10:32:27;;;;;;;0.47;0.47;;;27.90;41.80;;;;;;940073;151;27401;-75
2022/05/26 10:34:59;;;;;;;0.57;0.53;;;27.80;42.00;;;;;;942046;149;27758;-75
2022/05/26 10:37:29;;;;;;;1.80;0.60;;;27.70;42.30;;;;;;941513;149;27407;-75
2022/05/26 10:40:05;;;;;;;0.40;0.35;;;27.70;42.40;;;;;;940668;149;27321;-75
2022/05/26 10:42:31;;;;;;;0.75;0.53;;;27.60;42.50;;;;;;942110;149;27303;-75
2022/05/26 10:45:16;;;;;;;0.85;0.42;;;27.50;42.60;;;;;;942536;149;27451;-75
2022/05/26 10:47:46;;;;;;;0.57;0.57;;;27.50;42.50;;;;;;941576;149;27372;-75
2022/05/26 10:50:18;;;;;;;0.70;0.70;;;27.50;42.60;;;;;;942658;149;27455;-75
2022/05/26 10:52:54;;;;;;;1.70;0.40;;;27.50;42.70;;;;;;942546;150;27447;-75
2022/05/26 10:55:20;;;;;;;0.40;0.40;;;27.50;42.60;;;;;;941641;149;27295;-75
2022/05/26 10:58:11;;;;;;;0.30;0.30;;;27.50;42.30;;;;;;941531;149;27416;-75
2022/05/26 11:00:38;;;;;;;0.33;0.30;;;27.50;42.10;;;;;;942005;149;27358;-75
2022/05/26 11:03:13;;;;;;;1.40;0.53;;;27.50;42.10;;;;;;942595;149;27449;-75
2022/05/26 11:05:46;;;;;;;1.37;0.60;;;27.60;42.30;;;;;;942275;149;27310;-75
2022/05/26 11:08:33;;;;;;;0.93;0.68;;;27.60;42.30;;;;;;941869;149;27295;-75
2022/05/26 11:11:03;;;;;;;0.50;0.50;;;27.70;42.40;;;;;;942979;149;27418;-75
2022/05/26 11:13:38;;;;;;;0.42;0.37;;;27.70;42.00;;;;;;943094;149;27451;-75
2022/05/26 11:19:32;;;;;;;0.65;0.65;;;27.70;41.50;;;;;;942446;149;27401;-75
2022/05/26 11:21:58;;;;;;;0.72;0.33;;;27.50;41.40;;;;;;942052;149;27337;-75
2022/05/26 11:24:25;;;;;;;0.85;0.65;;;27.30;41.40;;;;;;942347;149;27915;-75
2022/05/26 11:26:51;;;;;;;0.88;0.53;;;27.20;41.40;;;;;;940988;149;27361;-75
2022/05/26 11:29:18;;;;;;;1.02;0.50;;;27.00;41.40;;;;;;942073;149;27440;-76
2022/05/26 11:37:20;;;;;;;0.82;0.40;;;26.60;42.00;;;;;;942375;149;27338;-75
2022/05/26 11:39:46;;;;;;;0.40;0.40;;;26.60;42.40;;;;;;942384;149;27314;-75
2022/05/26 11:42:13;;;;;;;0.30;0.30;;;26.60;42.30;;;;;;942678;149;27346;-75
2022/05/26 11:44:40;;;;;;;0.53;0.40;;;26.60;42.50;;;;;;940581;149;27740;-75
2022/05/26 11:47:12;;;;;;;0.37;0.30;;;26.70;42.70;;;;;;942131;149;27338;-75
2022/05/26 11:49:45;;;;;;;0.30;0.30;;;26.90;43.10;;;;;;941315;149;27322;-75
2022/05/26 11:52:23;;;;;;;0.80;0.30;;;27.10;42.80;;;;;;942803;149;27425;-75
2022/05/26 11:54:53;;;;;;;0.98;0.40;;;27.30;42.70;;;;;;942028;149;27478;-75
2022/05/26 11:57:41;;;;;;;0.50;0.25;;;27.50;42.40;;;;;;941866;149;27430;-75
2022/05/26 12:00:16;;;;;;;0.55;0.50;;;27.60;42.20;;;;;;942031;149;27440;-75
2022/05/26 12:02:43;;;;;;;0.88;0.88;;;27.80;41.90;;;;;;942240;149;27287;-75
2022/05/26 12:05:31;;;;;;;0.33;0.33;;;27.90;41.60;;;;;;943393;149;27305;-75
2022/05/26 12:08:01;;;;;;;0.70;0.60;;;28.00;41.50;;;;;;941852;149;27337;-75
2022/05/26 12:10:27;;;;;;;0.75;0.60;;;28.10;41.20;;;;;;942491;149;27366;-75
2022/05/26 12:13:25;;;;;;;0.65;0.50;;;28.10;40.90;;;;;;942245;149;27366;-75
2022/05/26 12:16:18;;;;;;;0.88;0.45;;;28.10;40.50;;;;;;942459;149;27376;-75
2022/05/26 12:18:54;;;;;;;3.65;0.40;;;28.00;40.30;;;;;;941358;150;27379;-75
2022/05/26 12:21:30;;;;;;;0.40;0.40;;;27.90;40.30;;;;;;942468;149;27359;-75
2022/05/26 12:23:56;;;;;;;0.78;0.50;;;27.70;40.40;;;;;;941049;149;27413;-75
2022/05/26 12:26:26;;;;;;;1.90;1.15;;;27.60;40.40;;;;;;942061;149;27394;-75
2022/05/26 12:28:52;;;;;;;1.00;0.57;;;27.50;40.40;;;;;;942807;149;27725;-75
2022/05/26 12:31:19;;;;;;;0.47;0.40;;;27.30;40.30;;;;;;940466;150;27435;-75
2022/05/26 12:33:54;;;;;;;1.12;0.57;;;27.10;40.30;;;;;;942489;149;27717;-76
2022/05/26 12:36:21;;;;;;;1.62;0.60;;;27.00;40.50;;;;;;940826;149;27404;-75
2022/05/26 12:39:06;;;;;;;0.40;0.40;;;26.90;40.90;;;;;;942379;149;27359;-75
2022/05/26 12:41:50;;;;;;;0.40;0.40;;;26.80;40.80;;;;;;941383;149;27435;-75
2022/05/26 12:44:25;;;;;;;0.42;0.42;;;26.70;40.90;;;;;;940788;149;27365;-75
2022/05/26 12:47:16;;;;;;;1.75;0.57;;;26.70;40.80;;;;;;941873;149;27326;-75
2022/05/26 12:49:52;;;;;;;1.07;0.60;;;26.60;40.50;;;;;;942088;149;27361;-75
2022/05/26 12:52:31;;;;;;;1.12;0.60;;;26.50;40.60;;;;;;942819;149;27385;-75
2022/05/26 12:55:12;;;;;;;0.40;0.40;;;26.50;40.80;;;;;;942568;149;27671;-75
2022/05/26 12:57:42;;;;;;;0.65;0.35;;;26.40;40.70;;;;;;942386;149;27447;-75
2022/05/26 13:00:33;;;;;;;0.40;0.40;;;26.30;40.90;;;;;;942603;149;27374;-75
2022/05/26 13:03:00;;;;;;;0.55;0.50;;;26.30;41.20;;;;;;942829;149;27393;-75
2022/05/26 13:05:29;;;;;;;1.65;0.60;;;26.20;41.20;;;;;;942330;149;27307;-75
2022/05/26 13:07:56;;;;;;;0.47;0.40;;;26.20;41.60;;;;;;942396;149;27895;-75
2022/05/26 13:10:25;;;;;;;1.07;0.50;;;26.30;42.00;;;;;;942278;149;27396;-75
2022/05/26 13:12:52;;;;;;;0.90;0.45;;;26.40;41.80;;;;;;941936;149;27447;-75
2022/05/26 13:15:21;;;;;;;0.40;0.40;;;26.60;41.90;;;;;;942701;150;27354;-75
2022/05/26 13:17:48;;;;;;;0.30;0.30;;;26.70;41.70;;;;;;942367;149;27306;-76
2022/05/26 13:20:14;;;;;;;0.45;0.40;;;26.80;41.80;;;;;;942203;149;27408;-75
2022/05/26 13:22:41;;;;;;;1.55;0.50;;;27.00;41.40;;;;;;941061;149;27353;-75
2022/05/26 13:25:15;;;;;;;1.02;0.57;;;27.10;41.30;;;;;;942829;149;27391;-75
2022/05/26 13:27:46;;;;;;;0.80;0.60;;;27.20;41.30;;;;;;941348;149;27465;-75
2022/05/26 13:35:27;;;;;;;0.78;0.50;;;27.70;41.10;;;;;;942621;149;27385;-75
2022/05/26 13:37:53;;;;;;;0.40;0.40;;;27.80;40.70;;;;;;941727;149;27476;-75
2022/05/26 13:40:20;;;;;;;1.02;0.53;;;27.80;40.40;;;;;;942832;149;27447;-75
2022/05/26 13:42:47;;;;;;;1.80;0.70;;;27.90;40.20;;;;;;941923;149;27411;-75
2022/05/26 13:45:13;;;;;;;1.10;0.68;;;27.90;40.10;;;;;;942520;149;27318;-75
2022/05/26 13:47:40;;;;;;;0.90;0.75;;;27.80;40.10;;;;;;939577;149;27393;-75
2022/05/26 13:50:06;;;;;;;1.07;0.40;;;27.80;40.30;;;;;;942563;149;27333;-75